DLH7M EDDH-EDDM
Flight info
| Callsign | DLH7M |
|---|---|
| Flight time | 0h 58m |
| Altitude | 35000 |
| Route | AMLUH2C AMLUH M852 DENIX DCT ZUCKA DCT SODRO T703 LULAR T105 LANDU LANDU2B |
| Aircraft | A20N/M-SDE2E3FGIJ1LORWXYZ/HB1 |
Departure
| Time | 2026-05-07 13:09 |
|---|---|
| Airport | Hamburg Helmut Schmidt Airport (EDDH) |
Arrival
| Time | 2026-05-07 14:07 |
|---|---|
| Airport | Munich Airport (EDDM) |
| Time | Latitude | Longitude | Altitude | Speed | Heading |
|---|---|---|---|---|---|
| 2026-05-07 12:22 | 53.63169 | 10.00362 | 45 ft | 0 kts | 87° |
| 2026-05-07 12:37 | 53.63169 | 10.00361 | 45 ft | 0 kts | 87° |
| 2026-05-07 12:55 | 53.63169 | 10.00363 | 45 ft | 0 kts | 87° |
| 2026-05-07 12:56 | 53.63168 | 10.00337 | 45 ft | 4 kts | 94° |
| 2026-05-07 12:57 | 53.63173 | 10.00294 | 43 ft | 4 kts | 114° |
| 2026-05-07 12:57 | 53.63188 | 10.00258 | 42 ft | 4 kts | 148° |
| 2026-05-07 12:57 | 53.63203 | 10.00247 | 45 ft | 0 kts | 176° |
| 2026-05-07 12:58 | 53.63201 | 10.00247 | 45 ft | 0 kts | 176° |
| 2026-05-07 12:59 | 53.63202 | 10.00247 | 45 ft | 0 kts | 176° |
| 2026-05-07 12:59 | 53.63203 | 10.00247 | 45 ft | 0 kts | 176° |
| 2026-05-07 13:01 | 53.63197 | 10.00248 | 45 ft | 3 kts | 176° |
| 2026-05-07 13:01 | 53.63097 | 10.00259 | 45 ft | 18 kts | 179° |
| 2026-05-07 13:02 | 53.63043 | 10.00227 | 45 ft | 1 kts | 223° |
| 2026-05-07 13:02 | 53.63009 | 10.00201 | 45 ft | 9 kts | 210° |
| 2026-05-07 13:02 | 53.62942 | 10.00127 | 45 ft | 13 kts | 202° |
| 2026-05-07 13:02 | 53.62913 | 10.00097 | 45 ft | 1 kts | 212° |
| 2026-05-07 13:03 | 53.62894 | 10.00074 | 45 ft | 5 kts | 217° |
| 2026-05-07 13:03 | 53.62862 | 10.00020 | 46 ft | 8 kts | 236° |
| 2026-05-07 13:03 | 53.62855 | 10.00001 | 46 ft | 2 kts | 238° |
| 2026-05-07 13:03 | 53.62847 | 9.99980 | 46 ft | 0 kts | 238° |
| 2026-05-07 13:04 | 53.62847 | 9.99979 | 46 ft | 1 kts | 234° |
| 2026-05-07 13:04 | 53.62823 | 9.99963 | 46 ft | 1 kts | 188° |
| 2026-05-07 13:04 | 53.62758 | 9.99923 | 48 ft | 23 kts | 207° |
| 2026-05-07 13:05 | 53.62639 | 9.99763 | 45 ft | 18 kts | 244° |
| 2026-05-07 13:05 | 53.62620 | 9.99597 | 44 ft | 16 kts | 259° |
| 2026-05-07 13:05 | 53.62596 | 9.99385 | 45 ft | 20 kts | 257° |
| 2026-05-07 13:05 | 53.62563 | 9.99132 | 42 ft | 24 kts | 258° |
| 2026-05-07 13:06 | 53.62533 | 9.98840 | 43 ft | 27 kts | 261° |
| 2026-05-07 13:06 | 53.62499 | 9.98513 | 42 ft | 30 kts | 257° |
| 2026-05-07 13:06 | 53.62448 | 9.98174 | 40 ft | 24 kts | 240° |
| 2026-05-07 13:06 | 53.62351 | 9.97929 | 39 ft | 27 kts | 232° |
| 2026-05-07 13:07 | 53.62233 | 9.97708 | 40 ft | 18 kts | 237° |
| 2026-05-07 13:07 | 53.62179 | 9.97558 | 39 ft | 7 kts | 258° |
| 2026-05-07 13:07 | 53.62189 | 9.97454 | 40 ft | 11 kts | 301° |
| 2026-05-07 13:07 | 53.62257 | 9.97378 | 41 ft | 13 kts | 346° |
| 2026-05-07 13:08 | 53.62343 | 9.97415 | 41 ft | 14 kts | 44° |
| 2026-05-07 13:08 | 53.62409 | 9.97551 | 41 ft | 16 kts | 56° |
| 2026-05-07 13:08 | 53.62494 | 9.97721 | 39 ft | 22 kts | 50° |
| 2026-05-07 13:08 | 53.62594 | 9.97927 | 42 ft | 24 kts | 51° |
| 2026-05-07 13:09 | 53.62712 | 9.98166 | 44 ft | 39 kts | 49° |
| 2026-05-07 13:09 | 53.63089 | 9.98926 | 45 ft | 125 kts | 50° |
| 2026-05-07 13:09 | 53.63751 | 10.00319 | 271 ft | 168 kts | 53° |
| 2026-05-07 13:09 | 53.64447 | 10.01823 | 1388 ft | 157 kts | 50° |
| 2026-05-07 13:10 | 53.65143 | 10.03206 | 2287 ft | 164 kts | 50° |
| 2026-05-07 13:10 | 53.65930 | 10.04749 | 3079 ft | 181 kts | 51° |
| 2026-05-07 13:10 | 53.66781 | 10.06452 | 4002 ft | 194 kts | 51° |
| 2026-05-07 13:10 | 53.67699 | 10.08310 | 4654 ft | 224 kts | 51° |
| 2026-05-07 13:11 | 53.68730 | 10.10412 | 5602 ft | 230 kts | 52° |
| 2026-05-07 13:11 | 53.69717 | 10.12489 | 6900 ft | 223 kts | 58° |
| 2026-05-07 13:11 | 53.70267 | 10.14899 | 8075 ft | 222 kts | 82° |
| 2026-05-07 13:11 | 53.70133 | 10.17480 | 9064 ft | 229 kts | 109° |
| 2026-05-07 13:12 | 53.69265 | 10.19775 | 10010 ft | 239 kts | 137° |
| 2026-05-07 13:12 | 53.67800 | 10.21123 | 10905 ft | 244 kts | 165° |
| 2026-05-07 13:12 | 53.66099 | 10.21858 | 11589 ft | 263 kts | 166° |
| 2026-05-07 13:12 | 53.64244 | 10.22657 | 12068 ft | 286 kts | 166° |
| 2026-05-07 13:13 | 53.62234 | 10.23541 | 12456 ft | 310 kts | 165° |
| 2026-05-07 13:13 | 53.60070 | 10.24508 | 12801 ft | 334 kts | 165° |
| 2026-05-07 13:13 | 53.57791 | 10.25535 | 13287 ft | 350 kts | 165° |
| 2026-05-07 13:13 | 53.55433 | 10.26600 | 14081 ft | 352 kts | 165° |
| 2026-05-07 13:14 | 53.53041 | 10.27680 | 14765 ft | 359 kts | 166° |
| 2026-05-07 13:14 | 53.50614 | 10.28775 | 15553 ft | 362 kts | 166° |
| 2026-05-07 13:14 | 53.48165 | 10.29877 | 16347 ft | 366 kts | 166° |
| 2026-05-07 13:14 | 53.45689 | 10.30989 | 17116 ft | 370 kts | 166° |
| 2026-05-07 13:15 | 53.43184 | 10.32113 | 17855 ft | 375 kts | 166° |
| 2026-05-07 13:15 | 53.40682 | 10.33239 | 18546 ft | 379 kts | 166° |
| 2026-05-07 13:15 | 53.38117 | 10.34396 | 19246 ft | 381 kts | 166° |
| 2026-05-07 13:15 | 53.35545 | 10.35558 | 19940 ft | 384 kts | 166° |
| 2026-05-07 13:16 | 53.32948 | 10.36725 | 20606 ft | 387 kts | 166° |
| 2026-05-07 13:16 | 53.30335 | 10.37899 | 21257 ft | 390 kts | 167° |
| 2026-05-07 13:16 | 53.27726 | 10.39070 | 21911 ft | 394 kts | 166° |
| 2026-05-07 13:16 | 53.25031 | 10.40274 | 22536 ft | 398 kts | 166° |
| 2026-05-07 13:17 | 53.22386 | 10.41457 | 23200 ft | 400 kts | 167° |
| 2026-05-07 13:17 | 53.19669 | 10.42668 | 23770 ft | 404 kts | 166° |
| 2026-05-07 13:17 | 53.16939 | 10.43884 | 24314 ft | 407 kts | 166° |
| 2026-05-07 13:17 | 53.14188 | 10.45111 | 24857 ft | 410 kts | 166° |
| 2026-05-07 13:18 | 53.11401 | 10.46174 | 25345 ft | 413 kts | 171° |
| 2026-05-07 13:18 | 53.08557 | 10.47050 | 25797 ft | 417 kts | 170° |
| 2026-05-07 13:18 | 53.05730 | 10.47926 | 26303 ft | 419 kts | 171° |
| 2026-05-07 13:18 | 53.02848 | 10.48822 | 26801 ft | 422 kts | 170° |
| 2026-05-07 13:19 | 52.99952 | 10.49720 | 27228 ft | 426 kts | 170° |
| 2026-05-07 13:19 | 52.97021 | 10.50631 | 27711 ft | 428 kts | 170° |
| 2026-05-07 13:19 | 52.94107 | 10.51534 | 28122 ft | 431 kts | 170° |
| 2026-05-07 13:19 | 52.91148 | 10.52448 | 28545 ft | 434 kts | 170° |
| 2026-05-07 13:20 | 52.88165 | 10.53370 | 28952 ft | 437 kts | 170° |
| 2026-05-07 13:20 | 52.85156 | 10.54298 | 29342 ft | 440 kts | 170° |
| 2026-05-07 13:20 | 52.82136 | 10.55228 | 29730 ft | 443 kts | 169° |
| 2026-05-07 13:20 | 52.79096 | 10.56164 | 30100 ft | 446 kts | 170° |
| 2026-05-07 13:21 | 52.76031 | 10.57106 | 30441 ft | 448 kts | 169° |
| 2026-05-07 13:21 | 52.72954 | 10.58050 | 30764 ft | 451 kts | 170° |
| 2026-05-07 13:21 | 52.69891 | 10.58989 | 31065 ft | 454 kts | 170° |
| 2026-05-07 13:21 | 52.66771 | 10.59945 | 31491 ft | 454 kts | 170° |
| 2026-05-07 13:22 | 52.63664 | 10.60894 | 31937 ft | 453 kts | 170° |
| 2026-05-07 13:22 | 52.60555 | 10.61842 | 32360 ft | 453 kts | 170° |
| 2026-05-07 13:22 | 52.57487 | 10.62776 | 32785 ft | 452 kts | 170° |
| 2026-05-07 13:22 | 52.54386 | 10.63720 | 33187 ft | 452 kts | 170° |
| 2026-05-07 13:23 | 52.52332 | 10.64345 | 33450 ft | 452 kts | 170° |
| 2026-05-07 13:23 | 52.49237 | 10.65285 | 33863 ft | 452 kts | 170° |
| 2026-05-07 13:23 | 52.46138 | 10.66225 | 34213 ft | 452 kts | 170° |
| 2026-05-07 13:23 | 52.43053 | 10.67158 | 34553 ft | 451 kts | 170° |
| 2026-05-07 13:24 | 52.39961 | 10.68093 | 34895 ft | 450 kts | 170° |
| 2026-05-07 13:24 | 52.36857 | 10.69030 | 35040 ft | 456 kts | 170° |
| 2026-05-07 13:24 | 52.30566 | 10.70922 | 35078 ft | 468 kts | 170° |
| 2026-05-07 13:25 | 52.24093 | 10.72867 | 35072 ft | 476 kts | 171° |
| 2026-05-07 13:25 | 52.17578 | 10.74817 | 35065 ft | 480 kts | 170° |
| 2026-05-07 13:26 | 52.10980 | 10.76787 | 35061 ft | 482 kts | 170° |
| 2026-05-07 13:26 | 52.04356 | 10.78759 | 35050 ft | 484 kts | 170° |
| 2026-05-07 13:27 | 51.97762 | 10.80717 | 35045 ft | 484 kts | 171° |
| 2026-05-07 13:27 | 51.91102 | 10.82687 | 35039 ft | 484 kts | 170° |
| 2026-05-07 13:28 | 51.84496 | 10.84636 | 35040 ft | 484 kts | 170° |
| 2026-05-07 13:28 | 51.77858 | 10.86589 | 35039 ft | 484 kts | 171° |
| 2026-05-07 13:29 | 51.71269 | 10.88525 | 35039 ft | 483 kts | 169° |
| 2026-05-07 13:29 | 51.64831 | 10.91669 | 35044 ft | 485 kts | 158° |
| 2026-05-07 13:30 | 51.58768 | 10.96416 | 35026 ft | 486 kts | 154° |
| 2026-05-07 13:30 | 51.52701 | 11.01234 | 35025 ft | 486 kts | 154° |
| 2026-05-07 13:31 | 51.46606 | 11.06030 | 35026 ft | 488 kts | 154° |
| 2026-05-07 13:31 | 51.40534 | 11.10788 | 35027 ft | 488 kts | 155° |
| 2026-05-07 13:32 | 51.34483 | 11.15515 | 35017 ft | 476 kts | 155° |
| 2026-05-07 13:32 | 51.31548 | 11.17802 | 35017 ft | 459 kts | 155° |
| 2026-05-07 13:32 | 51.28751 | 11.19982 | 35010 ft | 444 kts | 155° |
| 2026-05-07 13:33 | 51.23176 | 11.24309 | 35018 ft | 450 kts | 155° |
| 2026-05-07 13:33 | 51.17552 | 11.28664 | 35006 ft | 449 kts | 155° |
| 2026-05-07 13:34 | 51.09106 | 11.35184 | 35004 ft | 450 kts | 155° |
| 2026-05-07 13:35 | 51.03463 | 11.39524 | 35001 ft | 450 kts | 155° |
| 2026-05-07 13:35 | 50.97813 | 11.43861 | 34992 ft | 450 kts | 155° |
| 2026-05-07 13:36 | 50.92167 | 11.48180 | 34997 ft | 450 kts | 155° |
| 2026-05-07 13:36 | 50.86555 | 11.52462 | 34998 ft | 450 kts | 155° |
| 2026-05-07 13:37 | 50.80897 | 11.56769 | 34985 ft | 450 kts | 155° |
| 2026-05-07 13:37 | 50.75279 | 11.61033 | 34979 ft | 450 kts | 155° |
| 2026-05-07 13:38 | 50.69602 | 11.65330 | 34976 ft | 452 kts | 155° |
| 2026-05-07 13:38 | 50.63952 | 11.69595 | 34975 ft | 452 kts | 155° |
| 2026-05-07 13:39 | 50.58315 | 11.73840 | 34974 ft | 449 kts | 156° |
| 2026-05-07 13:39 | 50.52668 | 11.78080 | 34964 ft | 450 kts | 156° |
| 2026-05-07 13:40 | 50.47023 | 11.82308 | 34970 ft | 450 kts | 156° |
| 2026-05-07 13:40 | 50.41320 | 11.86323 | 34965 ft | 449 kts | 158° |
| 2026-05-07 13:41 | 50.35565 | 11.90142 | 34972 ft | 449 kts | 158° |
| 2026-05-07 13:41 | 50.29814 | 11.93995 | 34962 ft | 449 kts | 158° |
| 2026-05-07 13:42 | 50.24099 | 11.97840 | 34960 ft | 450 kts | 158° |
| 2026-05-07 13:42 | 50.18341 | 12.01715 | 34948 ft | 449 kts | 158° |
| 2026-05-07 13:43 | 50.12612 | 12.05562 | 34942 ft | 447 kts | 158° |
| 2026-05-07 13:43 | 50.06882 | 12.09396 | 34945 ft | 448 kts | 158° |
| 2026-05-07 13:44 | 50.01178 | 12.13198 | 34937 ft | 448 kts | 159° |
| 2026-05-07 13:44 | 49.95431 | 12.17019 | 34940 ft | 449 kts | 159° |
| 2026-05-07 13:45 | 49.89693 | 12.20824 | 34939 ft | 448 kts | 159° |
| 2026-05-07 13:45 | 49.83955 | 12.24619 | 34941 ft | 448 kts | 159° |
| 2026-05-07 13:46 | 49.78233 | 12.28394 | 34942 ft | 448 kts | 159° |
| 2026-05-07 13:46 | 49.72584 | 12.32441 | 34931 ft | 448 kts | 153° |
| 2026-05-07 13:46 | 49.69925 | 12.35013 | 34805 ft | 451 kts | 147° |
| 2026-05-07 13:47 | 49.67408 | 12.37928 | 34566 ft | 451 kts | 145° |
| 2026-05-07 13:47 | 49.64948 | 12.40835 | 34337 ft | 451 kts | 145° |
| 2026-05-07 13:47 | 49.62452 | 12.43771 | 34116 ft | 451 kts | 145° |
| 2026-05-07 13:47 | 49.59955 | 12.46692 | 33834 ft | 451 kts | 145° |
| 2026-05-07 13:48 | 49.57451 | 12.49610 | 33177 ft | 452 kts | 145° |
| 2026-05-07 13:48 | 49.54926 | 12.52543 | 32198 ft | 457 kts | 145° |
| 2026-05-07 13:48 | 49.52356 | 12.55522 | 31020 ft | 466 kts | 145° |
| 2026-05-07 13:48 | 49.49742 | 12.58549 | 29816 ft | 474 kts | 145° |
| 2026-05-07 13:49 | 49.47095 | 12.61612 | 28660 ft | 476 kts | 145° |
| 2026-05-07 13:49 | 49.44465 | 12.64668 | 27988 ft | 469 kts | 145° |
| 2026-05-07 13:49 | 49.42020 | 12.67916 | 27408 ft | 462 kts | 139° |
| 2026-05-07 13:49 | 49.39564 | 12.70974 | 26968 ft | 445 kts | 150° |
| 2026-05-07 13:50 | 49.36897 | 12.73019 | 26724 ft | 425 kts | 164° |
| 2026-05-07 13:50 | 49.34082 | 12.74009 | 26457 ft | 409 kts | 178° |
| 2026-05-07 13:50 | 49.31257 | 12.73861 | 26201 ft | 407 kts | 193° |
| 2026-05-07 13:50 | 49.28569 | 12.72606 | 25948 ft | 402 kts | 207° |
| 2026-05-07 13:51 | 49.26204 | 12.70409 | 25682 ft | 397 kts | 218° |
| 2026-05-07 13:51 | 49.24009 | 12.67843 | 25430 ft | 396 kts | 218° |
| 2026-05-07 13:51 | 49.21721 | 12.65485 | 25180 ft | 396 kts | 212° |
| 2026-05-07 13:51 | 49.19278 | 12.63558 | 24935 ft | 396 kts | 207° |
| 2026-05-07 13:52 | 49.16776 | 12.61777 | 24697 ft | 394 kts | 207° |
| 2026-05-07 13:52 | 49.14297 | 12.60007 | 24452 ft | 393 kts | 207° |
| 2026-05-07 13:52 | 49.11816 | 12.58235 | 24212 ft | 392 kts | 207° |
| 2026-05-07 13:52 | 49.09383 | 12.56498 | 23981 ft | 390 kts | 207° |
| 2026-05-07 13:53 | 49.06930 | 12.54747 | 23747 ft | 389 kts | 207° |
| 2026-05-07 13:53 | 49.04479 | 12.53000 | 23477 ft | 389 kts | 207° |
| 2026-05-07 13:53 | 49.02028 | 12.51252 | 23198 ft | 387 kts | 207° |
| 2026-05-07 13:53 | 48.99596 | 12.49512 | 22922 ft | 385 kts | 207° |
| 2026-05-07 13:54 | 48.97172 | 12.47779 | 22643 ft | 383 kts | 207° |
| 2026-05-07 13:54 | 48.94788 | 12.46076 | 22493 ft | 373 kts | 207° |
| 2026-05-07 13:54 | 48.92479 | 12.44431 | 22363 ft | 360 kts | 207° |
| 2026-05-07 13:54 | 48.90256 | 12.42851 | 22208 ft | 344 kts | 207° |
| 2026-05-07 13:55 | 48.88060 | 12.41547 | 22096 ft | 333 kts | 199° |
| 2026-05-07 13:55 | 48.85855 | 12.40777 | 21928 ft | 328 kts | 194° |
| 2026-05-07 13:55 | 48.83604 | 12.40093 | 21541 ft | 330 kts | 194° |
| 2026-05-07 13:55 | 48.81364 | 12.39408 | 21273 ft | 324 kts | 194° |
| 2026-05-07 13:56 | 48.79188 | 12.38751 | 21105 ft | 314 kts | 194° |
| 2026-05-07 13:56 | 48.77063 | 12.38115 | 20713 ft | 311 kts | 194° |
| 2026-05-07 13:56 | 48.74956 | 12.37490 | 20239 ft | 311 kts | 194° |
| 2026-05-07 13:56 | 48.72829 | 12.36866 | 19708 ft | 310 kts | 194° |
| 2026-05-07 13:57 | 48.70702 | 12.36250 | 19105 ft | 312 kts | 194° |
| 2026-05-07 13:57 | 48.68563 | 12.35636 | 18506 ft | 313 kts | 194° |
| 2026-05-07 13:57 | 48.66418 | 12.35028 | 17838 ft | 313 kts | 194° |
| 2026-05-07 13:57 | 48.64286 | 12.34427 | 17163 ft | 310 kts | 194° |
| 2026-05-07 13:58 | 48.62169 | 12.33831 | 16489 ft | 307 kts | 194° |
| 2026-05-07 13:58 | 48.60078 | 12.33243 | 15852 ft | 305 kts | 194° |
| 2026-05-07 13:58 | 48.58023 | 12.32663 | 15228 ft | 303 kts | 194° |
| 2026-05-07 13:58 | 48.55881 | 12.32050 | 14616 ft | 332 kts | 194° |
| 2026-05-07 13:59 | 48.53505 | 12.31724 | 14005 ft | 350 kts | 178° |
| 2026-05-07 13:59 | 48.51139 | 12.32675 | 13287 ft | 354 kts | 158° |
| 2026-05-07 13:59 | 48.48975 | 12.34436 | 12500 ft | 351 kts | 154° |
| 2026-05-07 13:59 | 48.46857 | 12.36219 | 11730 ft | 346 kts | 154° |
| 2026-05-07 14:00 | 48.44774 | 12.37971 | 11134 ft | 337 kts | 154° |
| 2026-05-07 14:00 | 48.42705 | 12.39288 | 10691 ft | 317 kts | 172° |
| 2026-05-07 14:00 | 48.40584 | 12.39331 | 10243 ft | 297 kts | 196° |
| 2026-05-07 14:00 | 48.38773 | 12.38115 | 9797 ft | 279 kts | 221° |
| 2026-05-07 14:01 | 48.37579 | 12.35926 | 9324 ft | 265 kts | 247° |
| 2026-05-07 14:01 | 48.37228 | 12.33272 | 8849 ft | 257 kts | 274° |
| 2026-05-07 14:01 | 48.37731 | 12.30736 | 8390 ft | 253 kts | 294° |
| 2026-05-07 14:01 | 48.38500 | 12.28367 | 7920 ft | 249 kts | 294° |
| 2026-05-07 14:02 | 48.39227 | 12.26064 | 7480 ft | 245 kts | 290° |
| 2026-05-07 14:02 | 48.39626 | 12.23593 | 7008 ft | 243 kts | 275° |
| 2026-05-07 14:02 | 48.39637 | 12.21037 | 6436 ft | 245 kts | 266° |
| 2026-05-07 14:02 | 48.39471 | 12.18486 | 5848 ft | 245 kts | 264° |
| 2026-05-07 14:03 | 48.39272 | 12.15933 | 5276 ft | 245 kts | 264° |
| 2026-05-07 14:03 | 48.39084 | 12.13462 | 4996 ft | 234 kts | 264° |
| 2026-05-07 14:03 | 48.38901 | 12.11098 | 4910 ft | 214 kts | 264° |
| 2026-05-07 14:03 | 48.38739 | 12.08984 | 4918 ft | 208 kts | 264° |
| 2026-05-07 14:04 | 48.38562 | 12.06732 | 4902 ft | 212 kts | 264° |
| 2026-05-07 14:04 | 48.38390 | 12.04593 | 4888 ft | 203 kts | 264° |
| 2026-05-07 14:04 | 48.38224 | 12.02482 | 4899 ft | 204 kts | 264° |
| 2026-05-07 14:04 | 48.38032 | 12.00255 | 3983 ft | 226 kts | 263° |
| 2026-05-07 14:05 | 48.37832 | 11.97923 | 3416 ft | 220 kts | 265° |
| 2026-05-07 14:05 | 48.37697 | 11.95717 | 2842 ft | 213 kts | 267° |
| 2026-05-07 14:05 | 48.37584 | 11.93565 | 2369 ft | 205 kts | 266° |
| 2026-05-07 14:05 | 48.37394 | 11.91523 | 2072 ft | 189 kts | 262° |
| 2026-05-07 14:06 | 48.36999 | 11.89620 | 1898 ft | 197 kts | 251° |
| 2026-05-07 14:06 | 48.36774 | 11.87626 | 1762 ft | 192 kts | 273° |
| 2026-05-07 14:06 | 48.36907 | 11.85639 | 1739 ft | 188 kts | 282° |
| 2026-05-07 14:06 | 48.37003 | 11.83755 | 1816 ft | 182 kts | 256° |
| 2026-05-07 14:07 | 48.36628 | 11.81902 | 1521 ft | 183 kts | 261° |
| 2026-05-07 14:07 | 48.36534 | 11.80138 | 1462 ft | 155 kts | 265° |
| 2026-05-07 14:07 | 48.36459 | 11.78941 | 1465 ft | 51 kts | 262° |
| 2026-05-07 14:07 | 48.36415 | 11.78531 | 1462 ft | 41 kts | 261° |
| 2026-05-07 14:08 | 48.36354 | 11.78132 | 1459 ft | 39 kts | 241° |
| 2026-05-07 14:08 | 48.36211 | 11.77838 | 1461 ft | 24 kts | 236° |
| 2026-05-07 14:08 | 48.36164 | 11.77749 | 1457 ft | 7 kts | 229° |
| 2026-05-07 14:08 | 48.36129 | 11.77687 | 1458 ft | 9 kts | 226° |
| 2026-05-07 14:09 | 48.36095 | 11.77671 | 1466 ft | 0 kts | 182° |
| 2026-05-07 14:12 | 48.36056 | 11.77669 | 1459 ft | 21 kts | 182° |
| 2026-05-07 14:12 | 48.35969 | 11.77729 | 1464 ft | 12 kts | 93° |
| 2026-05-07 14:12 | 48.35983 | 11.77908 | 1466 ft | 26 kts | 85° |
| 2026-05-07 14:12 | 48.36007 | 11.78200 | 1459 ft | 30 kts | 82° |
| 2026-05-07 14:13 | 48.36031 | 11.78520 | 1465 ft | 32 kts | 82° |
| 2026-05-07 14:13 | 48.36056 | 11.78856 | 1466 ft | 33 kts | 82° |
| 2026-05-07 14:13 | 48.36081 | 11.79155 | 1464 ft | 27 kts | 84° |
| 2026-05-07 14:13 | 48.36038 | 11.79324 | 1464 ft | 16 kts | 174° |
| 2026-05-07 14:14 | 48.35967 | 11.79338 | 1464 ft | 0 kts | 169° |
| 2026-05-07 14:14 | 48.35966 | 11.79338 | 1465 ft | 1 kts | 169° |
| 2026-05-07 14:14 | 48.35941 | 11.79345 | 1467 ft | 6 kts | 169° |
| 2026-05-07 14:14 | 48.35900 | 11.79391 | 1467 ft | 9 kts | 117° |
| 2026-05-07 14:15 | 48.35898 | 11.79397 | 1467 ft | 0 kts | 114° |
| 2026-05-07 14:15 | 48.35898 | 11.79399 | 1467 ft | 1 kts | 114° |
| 2026-05-07 14:15 | 48.35888 | 11.79421 | 1462 ft | 4 kts | 126° |
| 2026-05-07 14:15 | 48.35852 | 11.79453 | 1460 ft | 8 kts | 167° |
| 2026-05-07 14:16 | 48.35783 | 11.79465 | 1458 ft | 12 kts | 173° |
| 2026-05-07 14:16 | 48.35688 | 11.79482 | 1467 ft | 16 kts | 173° |
| 2026-05-07 14:16 | 48.35567 | 11.79505 | 1458 ft | 17 kts | 173° |
| 2026-05-07 14:16 | 48.35508 | 11.79514 | 1462 ft | 8 kts | 176° |
| 2026-05-07 14:17 | 48.35470 | 11.79481 | 1460 ft | 0 kts | 249° |
| 2026-05-07 14:17 | 48.35471 | 11.79473 | 1465 ft | 2 kts | 279° |
| 2026-05-07 14:18 | 48.35488 | 11.79451 | 1459 ft | 6 kts | 326° |
| 2026-05-07 14:18 | 48.35494 | 11.79400 | 1462 ft | 5 kts | 261° |
| 2026-05-07 14:18 | 48.35490 | 11.79328 | 1464 ft | 4 kts | 263° |
| 2026-05-07 14:18 | 48.35488 | 11.79301 | 1467 ft | 2 kts | 263° |
| 2026-05-07 14:19 | 48.35487 | 11.79289 | 1458 ft | 0 kts | 263° |
| 2026-05-07 14:19 | 48.35487 | 11.79291 | 1458 ft | 1 kts | 263° |
| 2026-05-07 14:19 | 48.35487 | 11.79293 | 1467 ft | 0 kts | 263° |
| 2026-05-07 14:20 | 48.35487 | 11.79290 | 1458 ft | 1 kts | 263° |
| 2026-05-07 14:20 | 48.35488 | 11.79294 | 1467 ft | 0 kts | 263° |
| 2026-05-07 14:20 | 48.35487 | 11.79291 | 1458 ft | 0 kts | 263° |